SM7SJR-13 Weather Reports


Display with metric or nautical units.
time (UTC)temp
F
wind
direction
speed
MPH
gust
MPH
rain 1hr
in
rain 24hr
in
rain mn
in
humidity
%
barometer
mb
20240522183004 58 18 4.0 10.0 0.00 0.00 0.00 74 1015.5
20240522181504 59 10 6.0 12.0 0.00 0.00 0.00 73 1015.4
20240522180005 60 3 6.0 10.0 0.00 0.00 0.00 71 1015.4
20240522174504 61 355 4.0 12.0 0.00 0.00 0.00 69 1015.3
20240522173004 63 349 4.0 12.0 0.00 0.00 0.00 67 1015.3
20240522171504 63 13 3.0 14.0 0.00 0.00 0.00 67 1015.3
20240522170004 63 21 3.0 10.0 0.00 0.00 0.00 68 1015.4
20240522164504 63 8 7.0 13.0 0.00 0.00 0.00 69 1015.5
20240522163004 64 29 7.0 13.0 0.00 0.00 0.00 69 1015.5
20240522161504 64 46 6.0 14.0 0.00 0.00 0.00 69 1015.8
20240522160004 65 15 6.0 12.0 0.00 0.00 0.00 68 1015.8
20240522154504 65 23 5.0 12.0 0.00 0.00 0.00 68 1015.8
20240522153004 67 32 6.0 9.0 0.00 0.00 0.00 65 1016.1
20240522150004 67 19 6.0 10.0 0.00 0.00 0.00 65 1016.3
20240522144504 68 21 3.0 14.0 0.00 0.00 0.00 64 1016.3
20240522143005 68 24 4.0 12.0 0.00 0.00 0.00 65 1016.3
20240522141505 68 41 3.0 12.0 0.00 0.00 0.00 65 1016.4
20240522140004 68 44 2.0 12.0 0.00 0.00 0.00 65 1016.6
20240522133004 65 36 7.0 15.0 0.00 0.00 0.00 68 1016.9
20240522131504 65 39 8.0 15.0 0.00 0.00 0.00 67 1017.0
20240522130004 66 49 6.0 15.0 0.00 0.00 0.00 67 1017.1
20240522124504 67 44 6.0 16.0 0.00 0.00 0.00 65 1017.2
20240522123004 67 56 6.0 15.0 0.00 0.00 0.00 66 1016.9
20240522121505 69 28 8.0 12.0 0.00 0.00 0.00 63 1017.0
20240522120005 70 44 3.0 12.0 0.00 0.00 0.00 64 1017.0
20240522114504 69 16 3.0 12.0 0.00 0.00 0.00 65 1017.0
20240522113004 69 22 9.0 13.0 0.00 0.00 0.00 65 1017.0
20240522111503 69 11 5.0 13.0 0.00 0.00 0.00 67 1017.3
20240522110004 67 44 9.0 14.0 0.00 0.00 0.00 66 1017.3
20240522104504 67 25 3.0 15.0 0.00 0.00 0.00 68 1017.3
20240522103004 66 29 6.0 16.0 0.00 0.00 0.00 66 1017.4
20240522101505 66 35 7.0 15.0 0.00 0.00 0.00 65 1017.4
20240522100004 66 53 6.0 13.0 0.00 0.00 0.00 66 1017.4
20240522094505 65 33 6.0 16.0 0.00 0.00 0.00 67 1017.4
20240522093004 66 23 7.0 15.0 0.00 0.00 0.00 66 1017.4
20240522091504 66 38 8.0 15.0 0.00 0.00 0.00 67 1017.3
20240522090003 66 52 7.0 15.0 0.00 0.00 0.00 68 1017.4
20240522084504 65 34 6.0 16.0 0.00 0.00 0.00 68 1017.4
20240522083005 65 25 6.0 13.0 0.00 0.00 0.00 68 1017.5
20240522080004 64 62 5.0 13.0 0.00 0.00 0.00 69 1017.5
20240522074504 64 38 7.0 13.0 0.00 0.00 0.00 68 1017.4
20240522073004 63 37 3.0 13.0 0.00 0.00 0.00 68 1017.4
20240522071504 64 34 5.0 13.0 0.00 0.00 0.00 68 1017.4
20240522064504 62 55 1.0 12.0 0.00 0.00 0.00 71 1017.3
20240522063004 62 26 6.0 9.0 0.00 0.00 0.00 72 1017.3
20240522061504 61 48 2.0 10.0 0.00 0.00 0.00 72 1017.2
20240522060004 60 33 6.0 13.0 0.00 0.00 0.00 72 1016.9
20240522054504 60 20 6.0 10.0 0.00 0.00 0.00 73 1016.9
20240522053004 59 28 5.0 10.0 0.00 0.00 0.00 73 1017.0
20240522051504 59 2 2.0 7.0 0.00 0.00 0.00 74 1017.0
20240522043004 56 355 5.0 8.0 0.00 0.00 0.00 78 1017.0
20240522041503 54 19 2.0 8.0 0.00 0.00 0.00 81 1017.0
20240522034504 51 350 5.0 9.0 0.00 0.00 0.00 85 1017.0
20240522031504 50 11 3.0 8.0 0.00 0.00 0.00 86 1017.1
20240522030004 50 347 4.0 9.0 0.00 0.00 0.00 86 1017.1
20240522023004 50 0 3.0 8.0 0.00 0.00 0.00 85 1017.1
20240522021504 50 5 3.0 9.0 0.00 0.00 0.00 84 1017.1
20240522020004 50 358 5.0 8.0 0.00 0.00 0.00 84 1017.2
20240522013004 50 344 3.0 8.0 0.00 0.00 0.00 83 1017.3
20240522011504 50 9 5.0 9.0 0.00 0.00 0.00 82 1017.4
20240522004504 50 22 5.0 10.0 0.00 0.00 0.00 81 1017.6
20240522003004 51 15 3.0 13.0 0.00 0.00 0.00 80 1017.6
20240522001504 51 38 6.0 12.0 0.00 0.00 0.00 79 1017.6
20240522000004 51 1 6.0 12.0 0.00 0.00 0.00 78 1017.8
20240521234504 51 5 7.0 13.0 0.00 0.00 0.00 77 1017.9
20240521231504 51 15 6.0 14.0 0.00 0.00 0.00 77 1018.2
20240521230004 51 18 5.0 12.0 0.00 0.00 0.00 76 1018.2
20240521224504 51 17 7.0 12.0 0.00 0.00 0.00 78 1018.1
20240521223004 51 10 5.0 12.0 0.00 0.00 0.00 79 1018.4
20240521221504 51 0 6.0 12.0 0.00 0.00 0.00 80 1018.4
20240521214504 50 13 7.0 12.0 0.00 0.00 0.00 80 1018.5
20240521213004 50 20 6.0 12.0 0.00 0.00 0.00 81 1018.5
20240521211504 50 6 6.0 12.0 0.00 0.00 0.00 81 1018.6
20240521204504 50 3 6.0 9.0 0.00 0.00 0.00 80 1018.9
20240521203004 50 4 3.0 7.0 0.00 0.00 0.00 79 1018.8
20240521201504 51 350 3.0 9.0 0.00 0.00 0.00 78 1018.8
20240521200004 51 1 5.0 12.0 0.00 0.00 0.00 77 1018.8
20240521194504 52 11 5.0 12.0 0.00 0.00 0.00 77 1018.8
20240521193004 52 2 5.0 12.0 0.00 0.00 0.00 76 1018.8
20240521191504 52 353 6.0 12.0 0.00 0.00 0.00 75 1019.0
20240521190004 53 5 6.0 12.0 0.00 0.00 0.00 74 1019.0